Big Bear Station Historical Data
Daily Summary for March 10, 2019 Units:  English    Metric   Both
Next Day »
Daily Weekly Monthly Yearly Custom
  High: Low: Average:
Temperature: 36.3 °F 19.0 °F 28.1 °F
Dew Point: 29.2 °F 13.3 °F 22.1 °F
Humidity: 94% 48% 79%
Wind Speed: 5.3mph 0.0mph 1.1mph
Wind Gust: -999.0mph - -
Wind- - NW
Pressure: 23.32 in 23.23 in -
Precipitation: 0.00 in    
Historical Graphs
 
 
Tabular Data for March 10, 2019
Time Temperature Dew Point Pressure Wind Wind Speed Wind Gust Humidity Rainfall Rate (Hourly)
00:05 21.7 °F 17.9 °F 23.26 in Calm   -999.0 mph 85% 0.00 in
00:20 21.4 °F 17.6 °F 23.27 in Calm   -999.0 mph 85% 0.00 in
00:35 20.7 °F 16.4 °F 23.26 in Calm   -999.0 mph 83% 0.00 in
00:50 20.3 °F 15.1 °F 23.26 in Calm   -999.0 mph 80% 0.00 in
01:06 19.8 °F 15.7 °F 23.26 in Calm   -999.0 mph 84% 0.00 in
01:21 19.8 °F 15.2 °F 23.26 in Calm   -999.0 mph 82% 0.00 in
01:36 19.0 °F 14.7 °F 23.25 in Calm   -999.0 mph 83% 0.00 in
01:51 19.4 °F 14.8 °F 23.25 in Calm   -999.0 mph 82% 0.00 in
03:00 19.4 °F 15.6 °F 23.25 in Calm   -999.0 mph 85% 0.00 in
03:15 19.0 °F 14.1 °F 23.24 in Calm   -999.0 mph 81% 0.00 in
03:30 19.0 °F 14.1 °F 23.24 in Calm   -999.0 mph 81% 0.00 in
03:46 19.2 °F 14.3 °F 23.24 in Calm   -999.0 mph 81% 0.00 in
04:01 19.2 °F 13.8 °F 23.23 in Calm   -999.0 mph 79% 0.00 in
04:16 19.0 °F 13.3 °F 23.23 in Calm   -999.0 mph 78% 0.00 in
04:32 19.2 °F 14.0 °F 23.23 in Calm   -999.0 mph 80% 0.00 in
04:47 19.4 °F 14.8 °F 23.23 in Calm   -999.0 mph 82% 0.00 in
05:02 19.8 °F 14.6 °F 23.23 in Calm   -999.0 mph 80% 0.00 in
05:17 20.3 °F 14.8 °F 23.23 in Calm   -999.0 mph 79% 0.00 in
05:32 20.3 °F 15.1 °F 23.23 in Calm   -999.0 mph 80% 0.00 in
05:48 20.7 °F 16.6 °F 23.23 in Calm   -999.0 mph 84% 0.00 in
06:03 21.4 °F 16.2 °F 23.23 in Calm   -999.0 mph 80% 0.00 in
06:18 21.6 °F 16.1 °F 23.23 in Calm   -999.0 mph 79% 0.00 in
06:33 21.6 °F 17.0 °F 23.23 in Calm   -999.0 mph 82% 0.00 in
06:48 21.7 °F 17.6 °F 23.23 in Calm   -999.0 mph 84% 0.00 in
07:04 22.1 °F 18.0 °F 23.24 in Calm   -999.0 mph 84% 0.00 in
07:19 22.5 °F 18.1 °F 23.24 in Calm   -999.0 mph 83% 0.00 in
07:34 22.8 °F 17.6 °F 23.24 in Calm   -999.0 mph 80% 0.00 in
07:49 23.2 °F 18.2 °F 23.25 in Calm   -999.0 mph 81% 0.00 in
08:05 24.3 °F 19.6 °F 23.25 in Calm   -999.0 mph 82% 0.00 in
08:20 25.2 °F 20.5 °F 23.25 in Calm   -999.0 mph 82% 0.00 in
08:35 26.6 °F 21.3 °F 23.25 in Calm   -999.0 mph 80% 0.00 in
08:50 27.9 °F 20.4 °F 23.26 in Calm   -999.0 mph 73% 0.00 in
09:05 29.1 °F 16.5 °F 23.26 in Calm   -999.0 mph 59% 0.00 in
09:21 30.4 °F 17.4 °F 23.26 in NW 1.7 mph -999.0 mph 58% 0.00 in
09:36 31.5 °F 19.2 °F 23.27 in NNW 1.1 mph -999.0 mph 60% 0.00 in
09:51 32.4 °F 19.7 °F 23.27 in Calm   -999.0 mph 59% 0.00 in
10:06 34.0 °F 17.3 °F 23.27 in Calm   -999.0 mph 50% 0.00 in
10:21 34.0 °F 16.4 °F 23.27 in Calm   -999.0 mph 48% 0.00 in
10:37 34.7 °F 18.9 °F 23.27 in SSW 1.1 mph -999.0 mph 52% 0.00 in
10:52 35.4 °F 18.1 °F 23.27 in NNW 2.7 mph -999.0 mph 49% 0.00 in
11:07 35.4 °F 18.1 °F 23.27 in NW 2.7 mph -999.0 mph 49% 0.00 in
11:23 36.0 °F 18.7 °F 23.27 in North 3.7 mph -999.0 mph 49% 0.00 in
11:38 36.3 °F 22.1 °F 23.27 in WNW 3.7 mph -999.0 mph 56% 0.00 in
11:53 34.7 °F 24.5 °F 23.27 in North 4.2 mph -999.0 mph 66% 0.00 in
12:09 35.1 °F 24.9 °F 23.27 in NNW 3.7 mph -999.0 mph 66% 0.00 in
12:25 34.7 °F 27.6 °F 23.28 in NNW 4.2 mph -999.0 mph 75% 0.00 in
12:40 34.3 °F 27.2 °F 23.27 in NW 4.2 mph -999.0 mph 75% 0.00 in
12:55 34.9 °F 28.1 °F 23.27 in NW 3.7 mph -999.0 mph 76% 0.00 in
13:11 34.3 °F 27.2 °F 23.27 in Calm   -999.0 mph 75% 0.00 in
13:26 34.7 °F 27.3 °F 23.27 in NNW 4.2 mph -999.0 mph 74% 0.00 in
13:41 34.9 °F 26.5 °F 23.27 in NNW 3.2 mph -999.0 mph 71% 0.00 in
13:56 35.2 °F 26.0 °F 23.27 in NW 3.7 mph -999.0 mph 69% 0.00 in
14:12 36.0 °F 26.5 °F 23.27 in WNW 4.2 mph -999.0 mph 68% 0.00 in
14:27 35.6 °F 26.4 °F 23.26 in NW 3.7 mph -999.0 mph 69% 0.00 in
14:42 35.1 °F 27.0 °F 23.26 in NW 2.2 mph -999.0 mph 72% 0.00 in
14:58 34.7 °F 27.6 °F 23.26 in West 2.7 mph -999.0 mph 75% 0.00 in
15:13 36.3 °F 28.1 °F 23.26 in NW 4.2 mph -999.0 mph 72% 0.00 in
15:28 35.6 °F 28.8 °F 23.26 in NW 4.7 mph -999.0 mph 76% 0.00 in
15:44 36.0 °F 29.2 °F 23.26 in NW 3.7 mph -999.0 mph 76% 0.00 in
15:59 36.0 °F 28.8 °F 23.26 in NW 3.2 mph -999.0 mph 75% 0.00 in
16:14 35.6 °F 28.1 °F 23.26 in NW 3.2 mph -999.0 mph 74% 0.00 in
16:30 35.6 °F 28.5 °F 23.27 in NW 4.2 mph -999.0 mph 75% 0.00 in
16:45 34.9 °F 26.8 °F 23.27 in WNW 3.7 mph -999.0 mph 72% 0.00 in
17:01 33.4 °F 27.6 °F 23.27 in NW 3.2 mph -999.0 mph 79% 0.00 in
17:16 32.7 °F 28.4 °F 23.27 in WNW 1.7 mph -999.0 mph 84% 0.00 in
17:32 33.3 °F 28.7 °F 23.27 in NW 5.3 mph -999.0 mph 83% 0.00 in
17:47 32.2 °F 28.2 °F 23.27 in NNW 2.2 mph -999.0 mph 85% 0.00 in
18:02 31.3 °F 27.9 °F 23.27 in SSE 2.7 mph -999.0 mph 87% 0.00 in
18:17 30.7 °F 27.3 °F 23.27 in Calm   -999.0 mph 87% 0.00 in
18:33 30.2 °F 27.1 °F 23.28 in Calm   -999.0 mph 88% 0.00 in
18:48 29.8 °F 27.2 °F 23.28 in Calm   -999.0 mph 90% 0.00 in
19:03 29.7 °F 27.4 °F 23.28 in Calm   -999.0 mph 91% 0.00 in
19:18 29.3 °F 27.0 °F 23.28 in Calm   -999.0 mph 91% 0.00 in
19:34 28.9 °F 26.9 °F 23.28 in Calm   -999.0 mph 92% 0.00 in
19:49 28.9 °F 27.1 °F 23.28 in Calm   -999.0 mph 93% 0.00 in
20:04 28.9 °F 27.1 °F 23.29 in Calm   -999.0 mph 93% 0.00 in
20:19 28.9 °F 27.4 °F 23.29 in Calm   -999.0 mph 94% 0.00 in
20:34 28.8 °F 27.3 °F 23.30 in Calm   -999.0 mph 94% 0.00 in
20:50 28.6 °F 27.1 °F 23.30 in Calm   -999.0 mph 94% 0.00 in
21:05 28.6 °F 27.1 °F 23.30 in Calm   -999.0 mph 94% 0.00 in
21:20 28.4 °F 26.9 °F 23.30 in Calm   -999.0 mph 94% 0.00 in
21:35 28.0 °F 26.2 °F 23.30 in Calm   -999.0 mph 93% 0.00 in
21:50 27.3 °F 25.3 °F 23.30 in Calm   -999.0 mph 92% 0.00 in
22:06 26.8 °F 24.8 °F 23.30 in Calm   -999.0 mph 92% 0.00 in
22:21 26.2 °F 24.2 °F 23.30 in Calm   -999.0 mph 92% 0.00 in
22:36 25.9 °F 24.2 °F 23.31 in Calm   -999.0 mph 93% 0.00 in
22:51 25.7 °F 24.0 °F 23.30 in Calm   -999.0 mph 93% 0.00 in
23:06 25.7 °F 24.0 °F 23.31 in Calm   -999.0 mph 93% 0.00 in
23:22 25.7 °F 24.0 °F 23.31 in Calm   -999.0 mph 93% 0.00 in
23:37 25.3 °F 23.8 °F 23.31 in Calm   -999.0 mph 94% 0.00 in
23:52 25.3 °F 23.8 °F 23.32 in Calm   -999.0 mph 94% 0.00 in
Big Bear CA Weather